sensor_id;sensor_type;location;lat;lon;timestamp;pressure;altitude;pressure_sealevel;temperature;humidity
9439;BME280;5176;42.622;25.386;2023-03-12T12:14:11;96703.16;;;12.54;32.96
9439;BME280;5176;42.622;25.386;2023-03-12T12:17:01;96695.56;;;12.40;32.78
9439;BME280;5176;42.622;25.386;2023-03-12T12:19:47;96700.13;;;12.15;32.40
9439;BME280;5176;42.622;25.386;2023-03-12T12:22:31;96720.44;;;12.13;32.57
9439;BME280;5176;42.622;25.386;2023-03-12T12:28:13;96718.75;;;11.90;32.66
9439;BME280;5176;42.622;25.386;2023-03-12T12:30:58;96729.44;;;11.76;32.80
9439;BME280;5176;42.622;25.386;2023-03-12T12:33:47;96725.72;;;11.67;32.95
9439;BME280;5176;42.622;25.386;2023-03-12T12:36:23;96732.81;;;11.89;33.36
9439;BME280;5176;42.622;25.386;2023-03-12T12:38:55;96728.97;;;11.70;32.67
9439;BME280;5176;42.622;25.386;2023-03-12T12:41:31;96737.88;;;11.92;33.07
9439;BME280;5176;42.622;25.386;2023-03-12T12:44:05;96734.50;;;12.01;32.96
9439;BME280;5176;42.622;25.386;2023-03-12T12:46:42;96733.34;;;12.05;32.95
9439;BME280;5176;42.622;25.386;2023-03-12T12:49:15;96739.66;;;12.25;32.35
9439;BME280;5176;42.622;25.386;2023-03-12T12:51:48;96730.44;;;12.08;32.39
9439;BME280;5176;42.622;25.386;2023-03-12T12:54:22;96734.28;;;12.04;32.62
9439;BME280;5176;42.622;25.386;2023-03-12T12:56:58;96739.66;;;11.91;32.98
9439;BME280;5176;42.622;25.386;2023-03-12T12:59:34;96732.13;;;12.20;32.07
9439;BME280;5176;42.622;25.386;2023-03-12T13:02:15;96731.16;;;12.33;32.25
9439;BME280;5176;42.622;25.386;2023-03-12T13:04:45;96743.00;;;12.38;31.71
9439;BME280;5176;42.622;25.386;2023-03-12T13:07:31;96747.88;;;12.43;31.68
9439;BME280;5176;42.622;25.386;2023-03-12T13:10:06;96744.31;;;12.44;31.43
9439;BME280;5176;42.622;25.386;2023-03-12T13:12:41;96734.16;;;12.39;31.25
9439;BME280;5176;42.622;25.386;2023-03-12T13:15:36;96741.31;;;12.37;30.97
9439;BME280;5176;42.622;25.386;2023-03-12T13:18:23;96740.47;;;12.37;31.35
9439;BME280;5176;42.622;25.386;2023-03-12T13:21:14;96744.06;;;12.36;30.75
9439;BME280;5176;42.622;25.386;2023-03-12T13:23:54;96741.16;;;12.50;30.58
9439;BME280;5176;42.622;25.386;2023-03-12T13:26:29;96734.00;;;12.52;30.84
9439;BME280;5176;42.622;25.386;2023-03-12T13:29:18;96749.22;;;12.26;31.20
9439;BME280;5176;42.622;25.386;2023-03-12T13:31:48;96756.97;;;12.27;31.11
9439;BME280;5176;42.622;25.386;2023-03-12T13:40:52;96761.13;;;11.96;31.91
9439;BME280;5176;42.622;25.386;2023-03-12T13:43:49;96756.91;;;11.71;31.95
9439;BME280;5176;42.622;25.386;2023-03-12T13:46:43;96760.69;;;11.67;32.49
9439;BME280;5176;42.622;25.386;2023-03-12T13:49:15;96756.94;;;11.83;32.58
9439;BME280;5176;42.622;25.386;2023-03-12T13:51:52;96762.69;;;12.10;32.53
9439;BME280;5176;42.622;25.386;2023-03-12T13:54:26;96775.63;;;12.24;32.21
9439;BME280;5176;42.622;25.386;2023-03-12T13:57:00;96775.50;;;12.26;32.00
9439;BME280;5176;42.622;25.386;2023-03-12T13:59:30;96772.50;;;12.31;31.88
9439;BME280;5176;42.622;25.386;2023-03-12T14:02:04;96772.72;;;12.27;31.83
9439;BME280;5176;42.622;25.386;2023-03-12T14:04:36;96769.03;;;12.41;31.74
9439;BME280;5176;42.622;25.386;2023-03-12T14:10:22;96778.25;;;12.24;32.03
9439;BME280;5176;42.622;25.386;2023-03-12T14:13:04;96794.94;;;12.12;31.75
9439;BME280;5176;42.622;25.386;2023-03-12T14:15:43;96786.69;;;11.59;32.68
9439;BME280;5176;42.622;25.386;2023-03-12T14:18:17;96775.66;;;11.43;32.79
9439;BME280;5176;42.622;25.386;2023-03-12T14:20:52;96783.94;;;11.61;32.92
9439;BME280;5176;42.622;25.386;2023-03-12T14:23:24;96789.56;;;11.67;32.81
9439;BME280;5176;42.622;25.386;2023-03-12T14:25:57;96784.00;;;11.37;33.42
9439;BME280;5176;42.622;25.386;2023-03-12T14:28:29;96784.16;;;11.46;33.21
9439;BME280;5176;42.622;25.386;2023-03-12T14:31:00;96780.50;;;11.60;33.49
9439;BME280;5176;42.622;25.386;2023-03-12T14:33:33;96792.59;;;11.39;33.24
9439;BME280;5176;42.622;25.386;2023-03-12T14:36:06;96789.97;;;11.39;33.20
9439;BME280;5176;42.622;25.386;2023-03-12T14:38:39;96791.75;;;11.38;33.57
9439;BME280;5176;42.622;25.386;2023-03-12T14:41:14;96796.19;;;11.38;33.26
9439;BME280;5176;42.622;25.386;2023-03-12T14:43:50;96800.72;;;11.12;33.59
9439;BME280;5176;42.622;25.386;2023-03-12T14:46:21;96810.56;;;10.84;34.09
9439;BME280;5176;42.622;25.386;2023-03-12T14:48:51;96806.13;;;10.48;34.45
9439;BME280;5176;42.622;25.386;2023-03-12T14:51:22;96807.09;;;10.47;34.38
9439;BME280;5176;42.622;25.386;2023-03-12T14:53:52;96803.63;;;10.08;34.86
9439;BME280;5176;42.622;25.386;2023-03-12T14:56:23;96812.25;;;10.10;34.98
9439;BME280;5176;42.622;25.386;2023-03-12T14:58:58;96818.19;;;10.00;35.29
9439;BME280;5176;42.622;25.386;2023-03-12T15:01:29;96821.97;;;10.08;35.56
9439;BME280;5176;42.622;25.386;2023-03-12T15:03:59;96820.19;;;9.96;35.13
9439;BME280;5176;42.622;25.386;2023-03-12T15:06:30;96830.03;;;9.93;35.49
9439;BME280;5176;42.622;25.386;2023-03-12T15:09:02;96826.88;;;9.88;35.67
9439;BME280;5176;42.622;25.386;2023-03-12T15:11:34;96836.00;;;9.95;35.64
9439;BME280;5176;42.622;25.386;2023-03-12T15:14:10;96832.63;;;9.80;35.58
9439;BME280;5176;42.622;25.386;2023-03-12T15:16:41;96843.75;;;9.83;36.16
9439;BME280;5176;42.622;25.386;2023-03-12T15:19:11;96847.22;;;9.84;35.73
9439;BME280;5176;42.622;25.386;2023-03-12T15:21:41;96846.47;;;9.95;35.56
9439;BME280;5176;42.622;25.386;2023-03-12T15:24:12;96852.66;;;10.06;35.27
9439;BME280;5176;42.622;25.386;2023-03-12T15:26:41;96851.59;;;9.96;35.43
9439;BME280;5176;42.622;25.386;2023-03-12T15:29:20;96852.34;;;9.98;35.55
9439;BME280;5176;42.622;25.386;2023-03-12T15:31:54;96863.78;;;9.97;35.42
9439;BME280;5176;42.622;25.386;2023-03-12T15:34:29;96856.84;;;10.09;35.42
9439;BME280;5176;42.622;25.386;2023-03-12T15:37:00;96863.72;;;10.24;35.15
9439;BME280;5176;42.622;25.386;2023-03-12T15:39:33;96871.75;;;10.34;35.23
9439;BME280;5176;42.622;25.386;2023-03-12T15:42:08;96869.94;;;10.22;35.29
9439;BME280;5176;42.622;25.386;2023-03-12T15:44:45;96865.78;;;10.19;34.74
9439;BME280;5176;42.622;25.386;2023-03-12T15:47:17;96876.03;;;9.97;35.20
9439;BME280;5176;42.622;25.386;2023-03-12T15:49:50;96873.28;;;9.86;35.95
9439;BME280;5176;42.622;25.386;2023-03-12T15:52:26;96880.44;;;9.69;35.95
9439;BME280;5176;42.622;25.386;2023-03-12T15:55:18;96887.00;;;9.49;36.41
9439;BME280;5176;42.622;25.386;2023-03-12T15:57:49;96895.66;;;9.37;36.88
9439;BME280;5176;42.622;25.386;2023-03-12T16:00:23;96891.25;;;9.38;36.62
9439;BME280;5176;42.622;25.386;2023-03-12T16:02:54;96904.28;;;9.52;36.42
9439;BME280;5176;42.622;25.386;2023-03-12T16:05:26;96920.47;;;9.44;36.43
9439;BME280;5176;42.622;25.386;2023-03-12T16:07:55;96918.75;;;9.58;36.14
9439;BME280;5176;42.622;25.386;2023-03-12T16:10:25;96933.41;;;9.60;36.62
9439;BME280;5176;42.622;25.386;2023-03-12T16:12:58;96939.88;;;9.54;36.61
9439;BME280;5176;42.622;25.386;2023-03-12T16:15:32;96938.59;;;9.47;36.66
9439;BME280;5176;42.622;25.386;2023-03-12T16:18:01;96939.69;;;9.58;36.48
9439;BME280;5176;42.622;25.386;2023-03-12T16:20:30;96947.47;;;9.45;36.97
9439;BME280;5176;42.622;25.386;2023-03-12T16:22:58;96917.91;;;9.30;36.81
9439;BME280;5176;42.622;25.386;2023-03-12T16:25:27;96958.44;;;9.37;37.01
9439;BME280;5176;42.622;25.386;2023-03-12T16:27:57;96972.00;;;9.30;37.04
9439;BME280;5176;42.622;25.386;2023-03-12T16:30:31;96966.81;;;9.42;37.16
9439;BME280;5176;42.622;25.386;2023-03-12T16:33:01;96970.88;;;9.19;37.32
9439;BME280;5176;42.622;25.386;2023-03-12T16:35:31;96978.53;;;9.22;37.79
9439;BME280;5176;42.622;25.386;2023-03-12T16:38:00;96986.78;;;9.02;37.73
9439;BME280;5176;42.622;25.386;2023-03-12T16:40:31;96995.28;;;9.06;37.76
9439;BME280;5176;42.622;25.386;2023-03-12T16:43:01;96994.16;;;8.95;37.52
9439;BME280;5176;42.622;25.386;2023-03-12T16:45:33;97012.38;;;8.97;37.72
9439;BME280;5176;42.622;25.386;2023-03-12T16:48:04;97008.72;;;8.85;37.67
9439;BME280;5176;42.622;25.386;2023-03-12T16:50:33;97016.56;;;8.71;38.25
9439;BME280;5176;42.622;25.386;2023-03-12T16:53:02;97024.19;;;8.60;38.05
9439;BME280;5176;42.622;25.386;2023-03-12T16:55:42;97029.66;;;8.55;38.54
9439;BME280;5176;42.622;25.386;2023-03-12T16:58:12;97029.53;;;8.42;38.23
9439;BME280;5176;42.622;25.386;2023-03-12T17:00:44;97035.38;;;8.32;38.33
9439;BME280;5176;42.622;25.386;2023-03-12T17:03:18;97036.66;;;8.25;39.19
9439;BME280;5176;42.622;25.386;2023-03-12T17:05:47;97047.13;;;8.25;38.65
9439;BME280;5176;42.622;25.386;2023-03-12T17:08:16;97039.78;;;8.15;39.08
9439;BME280;5176;42.622;25.386;2023-03-12T17:10:44;97043.91;;;8.19;38.90
9439;BME280;5176;42.622;25.386;2023-03-12T17:13:23;97058.66;;;8.36;38.71
9439;BME280;5176;42.622;25.386;2023-03-12T17:15:55;97070.84;;;8.36;38.74
9439;BME280;5176;42.622;25.386;2023-03-12T17:18:23;97067.34;;;8.37;38.92
9439;BME280;5176;42.622;25.386;2023-03-12T17:20:52;97070.91;;;8.34;38.31
9439;BME280;5176;42.622;25.386;2023-03-12T17:23:21;97074.75;;;8.13;38.49
9439;BME280;5176;42.622;25.386;2023-03-12T17:25:50;97084.94;;;8.02;38.78
9439;BME280;5176;42.622;25.386;2023-03-12T17:28:18;97084.13;;;8.01;39.07
9439;BME280;5176;42.622;25.386;2023-03-12T17:30:47;97094.00;;;7.96;38.89
9439;BME280;5176;42.622;25.386;2023-03-12T17:33:18;97100.22;;;8.09;39.22
9439;BME280;5176;42.622;25.386;2023-03-12T17:35:55;97105.34;;;8.11;38.94
9439;BME280;5176;42.622;25.386;2023-03-12T17:38:25;97115.59;;;8.14;39.61
9439;BME280;5176;42.622;25.386;2023-03-12T17:40:53;97113.25;;;8.25;39.10
9439;BME280;5176;42.622;25.386;2023-03-12T17:43:22;97105.75;;;8.19;38.80
9439;BME280;5176;42.622;25.386;2023-03-12T17:45:51;97121.75;;;8.13;38.95
9439;BME280;5176;42.622;25.386;2023-03-12T17:48:21;97135.75;;;8.12;38.78
9439;BME280;5176;42.622;25.386;2023-03-12T17:50:50;97135.84;;;8.10;38.86
9439;BME280;5176;42.622;25.386;2023-03-12T17:53:19;97127.56;;;8.18;39.43
9439;BME280;5176;42.622;25.386;2023-03-12T17:55:48;97134.13;;;8.25;39.46
9439;BME280;5176;42.622;25.386;2023-03-12T17:58:17;97134.22;;;8.08;38.93
9439;BME280;5176;42.622;25.386;2023-03-12T18:00:46;97147.59;;;8.02;39.29
9439;BME280;5176;42.622;25.386;2023-03-12T18:03:15;97147.94;;;8.11;38.74
9439;BME280;5176;42.622;25.386;2023-03-12T18:05:48;97136.16;;;8.20;38.97
9439;BME280;5176;42.622;25.386;2023-03-12T18:08:17;97144.09;;;8.03;38.89
9439;BME280;5176;42.622;25.386;2023-03-12T18:10:47;97149.38;;;7.85;39.03
9439;BME280;5176;42.622;25.386;2023-03-12T18:13:16;97157.97;;;7.87;38.91
9439;BME280;5176;42.622;25.386;2023-03-12T18:15:50;97156.69;;;7.79;39.09
9439;BME280;5176;42.622;25.386;2023-03-12T18:18:19;97160.06;;;7.81;39.49
9439;BME280;5176;42.622;25.386;2023-03-12T18:20:51;97166.81;;;7.85;38.98
9439;BME280;5176;42.622;25.386;2023-03-12T18:23:20;97170.59;;;7.95;38.63
9439;BME280;5176;42.622;25.386;2023-03-12T18:25:49;97174.63;;;8.01;38.79
9439;BME280;5176;42.622;25.386;2023-03-12T18:28:18;97178.25;;;8.14;38.79
9439;BME280;5176;42.622;25.386;2023-03-12T18:30:48;97187.25;;;7.92;38.50
9439;BME280;5176;42.622;25.386;2023-03-12T18:33:17;97192.72;;;7.88;38.68
9439;BME280;5176;42.622;25.386;2023-03-12T18:35:46;97189.69;;;7.96;39.23
9439;BME280;5176;42.622;25.386;2023-03-12T18:38:16;97187.44;;;8.05;38.95
9439;BME280;5176;42.622;25.386;2023-03-12T18:40:45;97200.66;;;8.02;39.01
9439;BME280;5176;42.622;25.386;2023-03-12T18:43:16;97205.53;;;8.08;39.24
9439;BME280;5176;42.622;25.386;2023-03-12T18:45:45;97211.28;;;8.15;38.86
9439;BME280;5176;42.622;25.386;2023-03-12T18:48:15;97214.47;;;8.20;38.59
9439;BME280;5176;42.622;25.386;2023-03-12T18:50:43;97214.16;;;8.26;38.89
9439;BME280;5176;42.622;25.386;2023-03-12T18:53:14;97218.72;;;8.23;38.67
9439;BME280;5176;42.622;25.386;2023-03-12T18:55:50;97219.28;;;8.28;38.66
9439;BME280;5176;42.622;25.386;2023-03-12T18:58:20;97222.50;;;8.33;38.50
9439;BME280;5176;42.622;25.386;2023-03-12T19:00:50;97221.31;;;8.23;38.66
9439;BME280;5176;42.622;25.386;2023-03-12T19:03:19;97226.44;;;8.08;39.20
9439;BME280;5176;42.622;25.386;2023-03-12T19:05:58;97236.28;;;8.03;38.22
9439;BME280;5176;42.622;25.386;2023-03-12T19:08:27;97239.97;;;7.99;39.16
9439;BME280;5176;42.622;25.386;2023-03-12T19:10:58;97237.19;;;8.02;38.64
9439;BME280;5176;42.622;25.386;2023-03-12T19:13:27;97253.22;;;8.12;37.83
9439;BME280;5176;42.622;25.386;2023-03-12T19:15:58;97245.81;;;8.20;38.08
9439;BME280;5176;42.622;25.386;2023-03-12T19:18:27;97246.16;;;8.14;38.27
9439;BME280;5176;42.622;25.386;2023-03-12T19:20:56;97254.25;;;8.25;38.51
9439;BME280;5176;42.622;25.386;2023-03-12T19:23:25;97252.38;;;8.27;37.99
9439;BME280;5176;42.622;25.386;2023-03-12T19:25:54;97261.06;;;8.28;37.92
9439;BME280;5176;42.622;25.386;2023-03-12T19:28:24;97254.91;;;8.29;38.05
9439;BME280;5176;42.622;25.386;2023-03-12T19:30:58;97262.59;;;8.32;38.29
9439;BME280;5176;42.622;25.386;2023-03-12T19:33:27;97265.91;;;8.35;38.41
9439;BME280;5176;42.622;25.386;2023-03-12T19:35:56;97276.69;;;8.29;38.29
9439;BME280;5176;42.622;25.386;2023-03-12T19:38:25;97276.34;;;8.35;38.51
9439;BME280;5176;42.622;25.386;2023-03-12T19:40:55;97276.81;;;8.26;38.18
9439;BME280;5176;42.622;25.386;2023-03-12T19:43:26;97278.41;;;8.29;38.32
9439;BME280;5176;42.622;25.386;2023-03-12T19:45:55;97286.94;;;8.32;38.54
9439;BME280;5176;42.622;25.386;2023-03-12T19:48:24;97279.94;;;8.33;38.08
9439;BME280;5176;42.622;25.386;2023-03-12T19:50:53;97288.63;;;8.33;38.11
9439;BME280;5176;42.622;25.386;2023-03-12T19:53:23;97292.16;;;8.32;38.11
9439;BME280;5176;42.622;25.386;2023-03-12T19:55:53;97291.47;;;8.29;37.58
9439;BME280;5176;42.622;25.386;2023-03-12T19:58:22;97284.66;;;8.26;38.16
9439;BME280;5176;42.622;25.386;2023-03-12T20:00:52;97289.22;;;8.23;37.75
9439;BME280;5176;42.622;25.386;2023-03-12T20:03:21;97294.78;;;8.16;37.60
9439;BME280;5176;42.622;25.386;2023-03-12T20:05:50;97294.16;;;8.11;37.68
9439;BME280;5176;42.622;25.386;2023-03-12T20:08:18;97289.69;;;8.13;37.84
9439;BME280;5176;42.622;25.386;2023-03-12T20:10:48;97307.22;;;8.11;38.65
9439;BME280;5176;42.622;25.386;2023-03-12T20:13:17;97307.13;;;8.13;38.31
9439;BME280;5176;42.622;25.386;2023-03-12T20:15:46;97293.56;;;8.06;38.54
9439;BME280;5176;42.622;25.386;2023-03-12T20:18:16;97312.66;;;8.07;38.53
9439;BME280;5176;42.622;25.386;2023-03-12T20:20:45;97304.41;;;7.99;38.79
9439;BME280;5176;42.622;25.386;2023-03-12T20:23:14;97310.47;;;7.99;39.18
9439;BME280;5176;42.622;25.386;2023-03-12T20:25:43;97321.09;;;7.96;38.46
9439;BME280;5176;42.622;25.386;2023-03-12T20:28:14;97317.06;;;7.89;39.51
9439;BME280;5176;42.622;25.386;2023-03-12T20:30:43;97329.22;;;7.73;38.98
9439;BME280;5176;42.622;25.386;2023-03-12T20:33:12;97324.88;;;7.56;39.67
9439;BME280;5176;42.622;25.386;2023-03-12T20:35:43;97332.78;;;7.37;39.52
9439;BME280;5176;42.622;25.386;2023-03-12T20:38:11;97336.75;;;7.27;40.23
9439;BME280;5176;42.622;25.386;2023-03-12T20:40:44;97338.59;;;7.25;40.48
9439;BME280;5176;42.622;25.386;2023-03-12T20:43:13;97337.06;;;7.38;40.10
9439;BME280;5176;42.622;25.386;2023-03-12T20:45:46;97335.22;;;7.40;40.14
9439;BME280;5176;42.622;25.386;2023-03-12T20:48:15;97341.34;;;7.39;41.18
9439;BME280;5176;42.622;25.386;2023-03-12T20:50:47;97340.44;;;7.40;41.53
9439;BME280;5176;42.622;25.386;2023-03-12T20:53:16;97348.13;;;7.43;41.18
9439;BME280;5176;42.622;25.386;2023-03-12T20:55:44;97347.59;;;7.36;41.04
9439;BME280;5176;42.622;25.386;2023-03-12T20:58:13;97350.56;;;7.29;41.14
9439;BME280;5176;42.622;25.386;2023-03-12T21:00:42;97351.75;;;7.22;41.59
9439;BME280;5176;42.622;25.386;2023-03-12T21:03:11;97352.22;;;7.13;41.85
9439;BME280;5176;42.622;25.386;2023-03-12T21:05:40;97355.75;;;7.12;41.64
9439;BME280;5176;42.622;25.386;2023-03-12T21:08:10;97361.88;;;7.10;41.80
9439;BME280;5176;42.622;25.386;2023-03-12T21:10:39;97362.16;;;7.04;42.75
9439;BME280;5176;42.622;25.386;2023-03-12T21:13:06;97354.38;;;6.86;43.38
9439;BME280;5176;42.622;25.386;2023-03-12T21:15:36;97366.34;;;6.90;43.15
9439;BME280;5176;42.622;25.386;2023-03-12T21:18:05;97365.44;;;6.91;43.46
9439;BME280;5176;42.622;25.386;2023-03-12T21:20:35;97368.31;;;6.85;42.80
9439;BME280;5176;42.622;25.386;2023-03-12T21:23:04;97376.91;;;6.87;42.93
9439;BME280;5176;42.622;25.386;2023-03-12T21:25:35;97379.09;;;6.96;42.96
9439;BME280;5176;42.622;25.386;2023-03-12T21:28:06;97377.47;;;6.93;43.23
9439;BME280;5176;42.622;25.386;2023-03-12T21:30:35;97383.16;;;7.01;43.39
9439;BME280;5176;42.622;25.386;2023-03-12T21:33:04;97376.03;;;7.05;43.91
9439;BME280;5176;42.622;25.386;2023-03-12T21:35:33;97382.19;;;7.04;44.27
9439;BME280;5176;42.622;25.386;2023-03-12T21:38:02;97378.19;;;6.97;44.03
9439;BME280;5176;42.622;25.386;2023-03-12T21:40:30;97379.66;;;7.02;44.04
9439;BME280;5176;42.622;25.386;2023-03-12T21:43:00;97375.84;;;7.09;43.76
9439;BME280;5176;42.622;25.386;2023-03-12T21:45:30;97383.38;;;7.16;43.37
9439;BME280;5176;42.622;25.386;2023-03-12T21:47:58;97383.22;;;7.19;43.70
9439;BME280;5176;42.622;25.386;2023-03-12T21:50:27;97380.06;;;7.12;43.85
9439;BME280;5176;42.622;25.386;2023-03-12T21:52:55;97376.53;;;7.13;43.79
9439;BME280;5176;42.622;25.386;2023-03-12T21:55:25;97385.72;;;7.20;43.99
9439;BME280;5176;42.622;25.386;2023-03-12T21:57:54;97388.50;;;7.17;44.58
9439;BME280;5176;42.622;25.386;2023-03-12T22:00:25;97381.91;;;6.91;43.84
9439;BME280;5176;42.622;25.386;2023-03-12T22:02:54;97383.97;;;6.85;44.90
9439;BME280;5176;42.622;25.386;2023-03-12T22:05:22;97381.06;;;6.91;44.97
9439;BME280;5176;42.622;25.386;2023-03-12T22:07:51;97387.13;;;6.91;44.97
9439;BME280;5176;42.622;25.386;2023-03-12T22:10:20;97383.69;;;6.91;44.30
9439;BME280;5176;42.622;25.386;2023-03-12T22:12:49;97388.72;;;6.94;44.53
9439;BME280;5176;42.622;25.386;2023-03-12T22:15:17;97384.59;;;6.90;44.38
9439;BME280;5176;42.622;25.386;2023-03-12T22:17:48;97389.94;;;6.87;43.97
9439;BME280;5176;42.622;25.386;2023-03-12T22:20:16;97389.25;;;6.83;44.64
9439;BME280;5176;42.622;25.386;2023-03-12T22:22:45;97389.84;;;6.88;44.30
9439;BME280;5176;42.622;25.386;2023-03-12T22:25:14;97397.47;;;6.93;44.57
9439;BME280;5176;42.622;25.386;2023-03-12T22:27:43;97383.25;;;6.81;44.11
9439;BME280;5176;42.622;25.386;2023-03-12T22:30:12;97397.13;;;6.81;44.98
9439;BME280;5176;42.622;25.386;2023-03-12T22:32:41;97398.25;;;6.76;45.03
9439;BME280;5176;42.622;25.386;2023-03-12T22:35:11;97402.97;;;6.68;45.53
9439;BME280;5176;42.622;25.386;2023-03-12T22:37:43;97406.19;;;6.73;45.82
9439;BME280;5176;42.622;25.386;2023-03-12T22:40:13;97401.16;;;6.70;45.96
9439;BME280;5176;42.622;25.386;2023-03-12T22:42:48;97402.19;;;6.66;45.51
9439;BME280;5176;42.622;25.386;2023-03-12T22:45:17;97401.16;;;6.70;44.69
9439;BME280;5176;42.622;25.386;2023-03-12T22:47:45;97401.00;;;6.73;43.12
9439;BME280;5176;42.622;25.386;2023-03-12T22:50:16;97410.84;;;6.85;42.71
9439;BME280;5176;42.622;25.386;2023-03-12T22:52:44;97414.78;;;6.94;43.00
9439;BME280;5176;42.622;25.386;2023-03-12T22:55:13;97411.06;;;6.99;42.68
9439;BME280;5176;42.622;25.386;2023-03-12T22:57:42;97413.09;;;7.12;42.71
9439;BME280;5176;42.622;25.386;2023-03-12T23:00:13;97422.53;;;7.14;43.31
9439;BME280;5176;42.622;25.386;2023-03-12T23:02:42;97391.25;;;6.95;41.51
9439;BME280;5176;42.622;25.386;2023-03-12T23:05:11;97417.88;;;7.21;42.51
9439;BME280;5176;42.622;25.386;2023-03-12T23:07:41;97433.31;;;7.25;41.64
9439;BME280;5176;42.622;25.386;2023-03-12T23:10:11;97431.25;;;7.13;41.54
9439;BME280;5176;42.622;25.386;2023-03-12T23:12:39;97438.44;;;7.08;42.33
9439;BME280;5176;42.622;25.386;2023-03-12T23:15:09;97435.28;;;7.01;41.97
9439;BME280;5176;42.622;25.386;2023-03-12T23:17:38;97441.13;;;7.06;41.98
9439;BME280;5176;42.622;25.386;2023-03-12T23:20:08;97445.97;;;7.14;42.17
9439;BME280;5176;42.622;25.386;2023-03-12T23:22:36;97444.09;;;7.18;42.49
9439;BME280;5176;42.622;25.386;2023-03-12T23:25:07;97448.47;;;7.17;42.17
9439;BME280;5176;42.622;25.386;2023-03-12T23:27:36;97456.22;;;7.19;41.94
9439;BME280;5176;42.622;25.386;2023-03-12T23:30:06;97449.50;;;7.13;41.75
9439;BME280;5176;42.622;25.386;2023-03-12T23:32:35;97454.88;;;7.10;41.52
9439;BME280;5176;42.622;25.386;2023-03-12T23:35:04;97458.53;;;7.06;41.71
9439;BME280;5176;42.622;25.386;2023-03-12T23:37:33;97463.66;;;7.07;41.77
9439;BME280;5176;42.622;25.386;2023-03-12T23:40:01;97455.66;;;7.12;42.30
9439;BME280;5176;42.622;25.386;2023-03-12T23:42:33;97459.94;;;7.13;42.41
9439;BME280;5176;42.622;25.386;2023-03-12T23:45:03;97460.09;;;7.10;42.89
9439;BME280;5176;42.622;25.386;2023-03-12T23:47:32;97458.53;;;7.06;42.39
9439;BME280;5176;42.622;25.386;2023-03-12T23:50:01;97465.03;;;6.97;42.85
9439;BME280;5176;42.622;25.386;2023-03-12T23:52:30;97454.88;;;6.91;43.20
9439;BME280;5176;42.622;25.386;2023-03-12T23:54:58;97462.81;;;6.88;42.88
9439;BME280;5176;42.622;25.386;2023-03-12T23:57:28;97456.06;;;6.84;43.81
9439;BME280;5176;42.622;25.386;2023-03-12T23:59:58;97464.00;;;6.81;44.48
